CYAZ/YAZ METAR and TAF weather

Enter ICAO airport designator
Station Type Date Time Source
CYAZ METAR 2020/02/21 00:00 UTC NOAA

CYAZ 210000Z 18006KT 15SM FEW250 08/04 A3022 RMK CI2 SLP235


Station Type Date Time Source
CYAZ Decoded METAR 2020/02/21 00:00 UTC NOAA

Tofino Airport, Canada (CYAZ) 49-05N 125-46W
Feb 20, 2020 - 07:00 PM EST / 2020.02.21 0000 UTC
Wind: from the S (180 degrees) at 7 MPH (6 KT):0
Visibility: 15 mile(s):0
Sky conditions: mostly clear
Temperature: 46 F (8 C)
Dew Point: 39 F (4 C)
Relative Humidity: 75%
Pressure (altimeter): 30.22 in. Hg (1023 hPa)
ob: CYAZ 210000Z 18006KT 15SM FEW250 08/04 A3022 RMK CI2 SLP235
cycle: 0

Station Type Date Time Source
CYAZ TAF 2020/02/20 19:00 UTC NOAA

TAF CYAZ 201838Z 2019/2101 VRB03KT P6SM SCT250
BECMG 2020/2022 14005KT
RMK NXT FCST WILL BE ISSUED AT 211645Z

Example: see airport list